sensor_id;sensor_type;location;lat;lon;timestamp;pressure;altitude;pressure_sealevel;temperature;humidity
4022;BME280;2025;48.260;16.432;2022-09-21T00:01:05;100419.34;;;10.03;100.00
4022;BME280;2025;48.260;16.432;2022-09-21T00:03:32;100419.47;;;10.09;100.00
4022;BME280;2025;48.260;16.432;2022-09-21T00:06:03;100424.66;;;10.06;100.00
4022;BME280;2025;48.260;16.432;2022-09-21T00:08:30;100423.81;;;10.09;100.00
4022;BME280;2025;48.260;16.432;2022-09-21T00:10:57;100420.31;;;10.08;100.00
4022;BME280;2025;48.260;16.432;2022-09-21T00:13:26;100421.25;;;10.10;100.00
4022;BME280;2025;48.260;16.432;2022-09-21T00:15:53;100423.00;;;10.11;100.00
4022;BME280;2025;48.260;16.432;2022-09-21T00:18:21;100420.63;;;10.20;100.00
4022;BME280;2025;48.260;16.432;2022-09-21T00:20:48;100419.63;;;10.17;100.00
4022;BME280;2025;48.260;16.432;2022-09-21T00:23:16;100418.78;;;10.18;100.00
4022;BME280;2025;48.260;16.432;2022-09-21T00:25:43;100416.06;;;10.13;100.00
4022;BME280;2025;48.260;16.432;2022-09-21T00:28:10;100419.56;;;10.14;100.00
4022;BME280;2025;48.260;16.432;2022-09-21T00:30:39;100421.38;;;10.16;100.00
4022;BME280;2025;48.260;16.432;2022-09-21T00:33:06;100410.78;;;10.10;100.00
4022;BME280;2025;48.260;16.432;2022-09-21T00:35:33;100419.56;;;10.14;100.00
4022;BME280;2025;48.260;16.432;2022-09-21T00:38:00;100409.88;;;10.10;100.00
4022;BME280;2025;48.260;16.432;2022-09-21T00:40:28;100414.31;;;10.12;100.00
4022;BME280;2025;48.260;16.432;2022-09-21T00:43:10;100412.50;;;10.10;100.00
4022;BME280;2025;48.260;16.432;2022-09-21T00:45:39;100419.59;;;10.15;100.00
4022;BME280;2025;48.260;16.432;2022-09-21T00:48:06;100422.09;;;10.09;100.00
4022;BME280;2025;48.260;16.432;2022-09-21T00:50:34;100416.75;;;10.05;100.00
4022;BME280;2025;48.260;16.432;2022-09-21T00:53:04;100405.41;;;10.04;100.00
4022;BME280;2025;48.260;16.432;2022-09-21T00:55:33;100407.13;;;10.04;100.00
4022;BME280;2025;48.260;16.432;2022-09-21T00:58:06;100408.97;;;10.08;100.00
4022;BME280;2025;48.260;16.432;2022-09-21T01:00:35;100400.78;;;9.92;100.00
4022;BME280;2025;48.260;16.432;2022-09-21T01:03:04;100410.25;;;9.86;100.00
4022;BME280;2025;48.260;16.432;2022-09-21T01:05:31;100407.56;;;9.83;100.00
4022;BME280;2025;48.260;16.432;2022-09-21T01:08:00;100403.19;;;9.82;100.00
4022;BME280;2025;48.260;16.432;2022-09-21T01:10:43;100409.25;;;9.81;100.00
4022;BME280;2025;48.260;16.432;2022-09-21T01:13:20;100409.97;;;9.74;100.00
4022;BME280;2025;48.260;16.432;2022-09-21T01:15:56;100411.53;;;9.65;100.00
4022;BME280;2025;48.260;16.432;2022-09-21T01:18:33;100415.97;;;9.68;100.00
4022;BME280;2025;48.260;16.432;2022-09-21T01:21:19;100409.03;;;9.70;100.00
4022;BME280;2025;48.260;16.432;2022-09-21T01:24:11;100415.00;;;9.64;100.00
4022;BME280;2025;48.260;16.432;2022-09-21T01:29:50;100420.34;;;9.69;100.00
4022;BME280;2025;48.260;16.432;2022-09-21T01:32:22;100422.06;;;9.69;100.00
4022;BME280;2025;48.260;16.432;2022-09-21T01:34:55;100426.59;;;9.76;100.00
4022;BME280;2025;48.260;16.432;2022-09-21T01:37:27;100420.38;;;9.71;100.00
4022;BME280;2025;48.260;16.432;2022-09-21T01:39:59;100421.56;;;9.85;100.00
4022;BME280;2025;48.260;16.432;2022-09-21T01:42:29;100426.72;;;9.82;100.00
4022;BME280;2025;48.260;16.432;2022-09-21T01:45:01;100424.09;;;9.80;100.00
4022;BME280;2025;48.260;16.432;2022-09-21T01:47:30;100430.97;;;9.77;100.00
4022;BME280;2025;48.260;16.432;2022-09-21T01:50:00;100430.19;;;9.81;100.00
4022;BME280;2025;48.260;16.432;2022-09-21T01:52:35;100431.06;;;9.80;100.00
4022;BME280;2025;48.260;16.432;2022-09-21T01:55:06;100426.69;;;9.80;100.00
4022;BME280;2025;48.260;16.432;2022-09-21T01:57:40;100423.44;;;9.90;100.00
4022;BME280;2025;48.260;16.432;2022-09-21T02:00:11;100429.53;;;9.89;100.00
4022;BME280;2025;48.260;16.432;2022-09-21T02:02:43;100439.25;;;9.95;100.00
4022;BME280;2025;48.260;16.432;2022-09-21T02:05:14;100428.88;;;10.00;100.00
4022;BME280;2025;48.260;16.432;2022-09-21T02:07:43;100428.16;;;10.07;100.00
4022;BME280;2025;48.260;16.432;2022-09-21T02:10:16;100431.66;;;10.07;100.00
4022;BME280;2025;48.260;16.432;2022-09-21T02:12:46;100430.91;;;10.13;100.00
4022;BME280;2025;48.260;16.432;2022-09-21T02:15:20;100430.03;;;10.14;100.00
4022;BME280;2025;48.260;16.432;2022-09-21T02:18:03;100429.97;;;10.11;100.00
4022;BME280;2025;48.260;16.432;2022-09-21T02:20:35;100430.84;;;10.10;100.00
4022;BME280;2025;48.260;16.432;2022-09-21T02:23:10;100433.38;;;10.07;100.00
4022;BME280;2025;48.260;16.432;2022-09-21T02:25:47;100440.50;;;10.12;100.00
4022;BME280;2025;48.260;16.432;2022-09-21T02:28:24;100436.81;;;10.04;100.00
4022;BME280;2025;48.260;16.432;2022-09-21T02:30:58;100438.59;;;10.05;100.00
4022;BME280;2025;48.260;16.432;2022-09-21T02:33:30;100442.91;;;10.03;100.00
4022;BME280;2025;48.260;16.432;2022-09-21T02:36:03;100445.47;;;10.00;100.00
4022;BME280;2025;48.260;16.432;2022-09-21T02:38:35;100436.59;;;9.93;100.00
4022;BME280;2025;48.260;16.432;2022-09-21T02:41:10;100454.09;;;9.96;100.00
4022;BME280;2025;48.260;16.432;2022-09-21T02:43:45;100450.63;;;9.97;100.00
4022;BME280;2025;48.260;16.432;2022-09-21T02:46:18;100448.75;;;9.91;100.00
4022;BME280;2025;48.260;16.432;2022-09-21T02:48:51;100456.72;;;9.96;100.00
4022;BME280;2025;48.260;16.432;2022-09-21T02:51:21;100450.50;;;9.91;100.00
4022;BME280;2025;48.260;16.432;2022-09-21T02:53:52;100445.25;;;9.91;100.00
4022;BME280;2025;48.260;16.432;2022-09-21T02:56:20;100450.41;;;9.86;100.00
4022;BME280;2025;48.260;16.432;2022-09-21T02:58:50;100446.06;;;9.88;100.00
4022;BME280;2025;48.260;16.432;2022-09-21T03:01:22;100450.41;;;9.86;100.00
4022;BME280;2025;48.260;16.432;2022-09-21T03:03:50;100452.94;;;9.83;100.00
4022;BME280;2025;48.260;16.432;2022-09-21T03:06:17;100458.22;;;9.85;100.00
4022;BME280;2025;48.260;16.432;2022-09-21T03:08:44;100462.31;;;9.74;100.00
4022;BME280;2025;48.260;16.432;2022-09-21T03:11:15;100461.53;;;9.78;100.00
4022;BME280;2025;48.260;16.432;2022-09-21T03:13:42;100458.81;;;9.73;100.00
4022;BME280;2025;48.260;16.432;2022-09-21T03:16:09;100457.22;;;9.80;100.00
4022;BME280;2025;48.260;16.432;2022-09-21T03:18:38;100472.94;;;9.80;100.00
4022;BME280;2025;48.260;16.432;2022-09-21T03:21:07;100465.16;;;9.83;100.00
4022;BME280;2025;48.260;16.432;2022-09-21T03:23:34;100471.13;;;9.77;100.00
4022;BME280;2025;48.260;16.432;2022-09-21T03:26:01;100473.66;;;9.74;100.00
4022;BME280;2025;48.260;16.432;2022-09-21T03:28:28;100468.28;;;9.68;100.00
4022;BME280;2025;48.260;16.432;2022-09-21T03:30:55;100472.69;;;9.69;100.00
4022;BME280;2025;48.260;16.432;2022-09-21T03:33:22;100467.59;;;9.75;100.00
4022;BME280;2025;48.260;16.432;2022-09-21T03:35:52;100470.06;;;9.69;100.00
4022;BME280;2025;48.260;16.432;2022-09-21T03:38:19;100476.19;;;9.70;100.00
4022;BME280;2025;48.260;16.432;2022-09-21T03:40:47;100475.28;;;9.69;100.00
4022;BME280;2025;48.260;16.432;2022-09-21T03:43:15;100478.72;;;9.67;100.00
4022;BME280;2025;48.260;16.432;2022-09-21T03:45:42;100487.44;;;9.65;100.00
4022;BME280;2025;48.260;16.432;2022-09-21T03:48:10;100482.19;;;9.65;100.00
4022;BME280;2025;48.260;16.432;2022-09-21T03:50:38;100496.09;;;9.63;100.00
4022;BME280;2025;48.260;16.432;2022-09-21T03:53:06;100496.91;;;9.60;100.00
4022;BME280;2025;48.260;16.432;2022-09-21T03:55:33;100504.69;;;9.57;100.00
4022;BME280;2025;48.260;16.432;2022-09-21T03:58:00;100506.38;;;9.55;100.00
4022;BME280;2025;48.260;16.432;2022-09-21T04:00:27;100509.84;;;9.54;100.00
4022;BME280;2025;48.260;16.432;2022-09-21T04:02:54;100505.28;;;9.47;100.00
4022;BME280;2025;48.260;16.432;2022-09-21T04:05:22;100508.75;;;9.46;100.00
4022;BME280;2025;48.260;16.432;2022-09-21T04:07:49;100512.22;;;9.45;100.00
4022;BME280;2025;48.260;16.432;2022-09-21T04:10:19;100510.41;;;9.43;100.00
4022;BME280;2025;48.260;16.432;2022-09-21T04:12:56;100515.75;;;9.47;100.00
4022;BME280;2025;48.260;16.432;2022-09-21T04:15:23;100514.66;;;9.38;100.00
4022;BME280;2025;48.260;16.432;2022-09-21T04:17:50;100517.22;;;9.36;100.00
4022;BME280;2025;48.260;16.432;2022-09-21T04:20:18;100518.91;;;9.34;100.00
4022;BME280;2025;48.260;16.432;2022-09-21T04:22:45;100521.25;;;9.23;100.00
4022;BME280;2025;48.260;16.432;2022-09-21T04:25:13;100516.97;;;9.27;100.00
4022;BME280;2025;48.260;16.432;2022-09-21T04:27:42;100526.41;;;9.20;100.00
4022;BME280;2025;48.260;16.432;2022-09-21T04:30:10;100522.09;;;9.22;100.00
4022;BME280;2025;48.260;16.432;2022-09-21T04:32:38;100528.00;;;9.15;100.00
4022;BME280;2025;48.260;16.432;2022-09-21T04:35:05;100534.97;;;9.15;100.00
4022;BME280;2025;48.260;16.432;2022-09-21T04:37:33;100535.78;;;9.12;100.00
4022;BME280;2025;48.260;16.432;2022-09-21T04:40:00;100534.13;;;9.16;100.00
4022;BME280;2025;48.260;16.432;2022-09-21T04:42:27;100537.78;;;9.22;100.00
4022;BME280;2025;48.260;16.432;2022-09-21T04:44:55;100540.25;;;9.16;100.00
4022;BME280;2025;48.260;16.432;2022-09-21T04:47:22;100545.53;;;9.19;100.00
4022;BME280;2025;48.260;16.432;2022-09-21T04:49:50;100541.13;;;9.17;100.00
4022;BME280;2025;48.260;16.432;2022-09-21T04:52:18;100543.78;;;9.18;100.00
4022;BME280;2025;48.260;16.432;2022-09-21T04:54:44;100542.06;;;9.19;100.00
4022;BME280;2025;48.260;16.432;2022-09-21T04:57:12;100543.34;;;9.35;100.00
4022;BME280;2025;48.260;16.432;2022-09-21T04:59:39;100551.88;;;9.27;100.00
4022;BME280;2025;48.260;16.432;2022-09-21T05:02:07;100551.19;;;9.35;100.00
4022;BME280;2025;48.260;16.432;2022-09-21T05:04:34;100555.56;;;9.36;100.00
4022;BME280;2025;48.260;16.432;2022-09-21T05:07:02;100556.50;;;9.38;100.00
4022;BME280;2025;48.260;16.432;2022-09-21T05:09:29;100563.50;;;9.39;100.00
4022;BME280;2025;48.260;16.432;2022-09-21T05:12:13;100554.22;;;9.51;100.00
4022;BME280;2025;48.260;16.432;2022-09-21T05:14:40;100568.31;;;9.56;100.00
4022;BME280;2025;48.260;16.432;2022-09-21T05:17:10;100568.47;;;9.62;100.00
4022;BME280;2025;48.260;16.432;2022-09-21T05:19:37;100563.34;;;9.67;100.00
4022;BME280;2025;48.260;16.432;2022-09-21T05:22:04;100568.50;;;9.64;100.00
4022;BME280;2025;48.260;16.432;2022-09-21T05:24:31;100577.25;;;9.64;100.00
4022;BME280;2025;48.260;16.432;2022-09-21T05:26:58;100568.69;;;9.72;100.00
4022;BME280;2025;48.260;16.432;2022-09-21T05:29:25;100568.66;;;9.70;100.00
4022;BME280;2025;48.260;16.432;2022-09-21T05:31:56;100567.94;;;9.76;100.00
4022;BME280;2025;48.260;16.432;2022-09-21T05:34:39;100568.16;;;9.85;100.00
4022;BME280;2025;48.260;16.432;2022-09-21T05:37:22;100571.72;;;9.88;100.00
4022;BME280;2025;48.260;16.432;2022-09-21T05:39:56;100574.53;;;9.96;100.00
4022;BME280;2025;48.260;16.432;2022-09-21T05:42:24;100587.06;;;10.09;100.00
4022;BME280;2025;48.260;16.432;2022-09-21T05:44:52;100578.50;;;10.16;100.00
4022;BME280;2025;48.260;16.432;2022-09-21T05:47:23;100578.50;;;10.16;100.00
4022;BME280;2025;48.260;16.432;2022-09-21T05:50:01;100584.03;;;10.27;100.00
4022;BME280;2025;48.260;16.432;2022-09-21T05:52:37;100577.28;;;10.38;100.00
4022;BME280;2025;48.260;16.432;2022-09-21T05:55:18;100581.03;;;10.48;100.00
4022;BME280;2025;48.260;16.432;2022-09-21T05:57:55;100583.97;;;10.63;100.00
4022;BME280;2025;48.260;16.432;2022-09-21T06:00:32;100583.19;;;10.67;100.00
4022;BME280;2025;48.260;16.432;2022-09-21T06:03:21;100587.03;;;10.83;100.00
4022;BME280;2025;48.260;16.432;2022-09-21T06:05:52;100586.25;;;10.88;100.00
4022;BME280;2025;48.260;16.432;2022-09-21T06:08:19;100577.41;;;10.83;100.00
4022;BME280;2025;48.260;16.432;2022-09-21T06:10:47;100582.88;;;10.94;100.00
4022;BME280;2025;48.260;16.432;2022-09-21T06:13:14;100575.66;;;10.82;100.00
4022;BME280;2025;48.260;16.432;2022-09-21T06:15:41;100572.41;;;10.96;100.00
4022;BME280;2025;48.260;16.432;2022-09-21T06:18:08;100578.66;;;11.01;100.00
4022;BME280;2025;48.260;16.432;2022-09-21T06:20:36;100581.19;;;10.96;100.00
4022;BME280;2025;48.260;16.432;2022-09-21T06:23:05;100588.41;;;11.08;100.00
4022;BME280;2025;48.260;16.432;2022-09-21T06:25:33;100584.84;;;11.04;100.00
4022;BME280;2025;48.260;16.432;2022-09-21T06:28:01;100585.72;;;11.05;100.00
4022;BME280;2025;48.260;16.432;2022-09-21T06:30:29;100601.75;;;11.20;100.00
4022;BME280;2025;48.260;16.432;2022-09-21T06:32:58;100589.69;;;11.30;100.00
4022;BME280;2025;48.260;16.432;2022-09-21T06:35:25;100598.91;;;11.09;100.00
4022;BME280;2025;48.260;16.432;2022-09-21T06:37:56;100594.22;;;11.38;100.00
4022;BME280;2025;48.260;16.432;2022-09-21T06:40:25;100592.72;;;11.06;100.00
4022;BME280;2025;48.260;16.432;2022-09-21T06:42:55;100598.53;;;10.89;100.00
4022;BME280;2025;48.260;16.432;2022-09-21T06:45:22;100606.28;;;10.85;100.00
4022;BME280;2025;48.260;16.432;2022-09-21T06:47:49;100609.88;;;10.88;100.00
4022;BME280;2025;48.260;16.432;2022-09-21T06:50:17;100611.94;;;11.05;100.00
4022;BME280;2025;48.260;16.432;2022-09-21T06:52:44;100615.69;;;11.17;100.00
4022;BME280;2025;48.260;16.432;2022-09-21T06:55:11;100617.91;;;11.41;100.00
4022;BME280;2025;48.260;16.432;2022-09-21T06:57:40;100618.63;;;11.34;100.00
4022;BME280;2025;48.260;16.432;2022-09-21T07:00:10;100620.88;;;11.60;100.00
4022;BME280;2025;48.260;16.432;2022-09-21T07:02:37;100616.00;;;11.79;100.00
4022;BME280;2025;48.260;16.432;2022-09-21T07:05:05;100615.03;;;11.76;100.00
4022;BME280;2025;48.260;16.432;2022-09-21T07:07:32;100615.75;;;11.67;100.00
4022;BME280;2025;48.260;16.432;2022-09-21T07:10:01;100627.41;;;11.81;100.00
4022;BME280;2025;48.260;16.432;2022-09-21T07:12:28;100619.47;;;11.78;100.00
4022;BME280;2025;48.260;16.432;2022-09-21T07:15:00;100627.59;;;11.92;100.00
4022;BME280;2025;48.260;16.432;2022-09-21T07:17:30;100629.53;;;12.02;100.00
4022;BME280;2025;48.260;16.432;2022-09-21T07:19:57;100633.97;;;12.06;100.00
4022;BME280;2025;48.260;16.432;2022-09-21T07:22:25;100643.50;;;12.01;100.00
4022;BME280;2025;48.260;16.432;2022-09-21T07:24:52;100630.44;;;11.57;100.00
4022;BME280;2025;48.260;16.432;2022-09-21T07:27:19;100642.88;;;11.68;100.00
4022;BME280;2025;48.260;16.432;2022-09-21T07:29:46;100633.72;;;11.44;100.00
4022;BME280;2025;48.260;16.432;2022-09-21T07:32:14;100629.69;;;11.18;100.00
4022;BME280;2025;48.260;16.432;2022-09-21T07:34:41;100638.25;;;11.09;100.00
4022;BME280;2025;48.260;16.432;2022-09-21T07:37:08;100637.47;;;11.13;100.00
4022;BME280;2025;48.260;16.432;2022-09-21T07:39:35;100642.72;;;11.13;100.00
4022;BME280;2025;48.260;16.432;2022-09-21T07:42:06;100644.50;;;11.16;100.00
4022;BME280;2025;48.260;16.432;2022-09-21T07:44:33;100642.88;;;11.21;100.00
4022;BME280;2025;48.260;16.432;2022-09-21T07:47:00;100643.28;;;11.42;100.00
4022;BME280;2025;48.260;16.432;2022-09-21T07:49:29;100641.84;;;11.58;100.00
4022;BME280;2025;48.260;16.432;2022-09-21T07:51:56;100641.47;;;11.85;100.00
4022;BME280;2025;48.260;16.432;2022-09-21T07:54:23;100651.53;;;12.09;100.00
4022;BME280;2025;48.260;16.432;2022-09-21T07:56:50;100651.94;;;12.33;100.00
4022;BME280;2025;48.260;16.432;2022-09-21T07:59:30;100650.88;;;12.20;100.00
4022;BME280;2025;48.260;16.432;2022-09-21T08:01:58;100647.09;;;12.06;100.00
4022;BME280;2025;48.260;16.432;2022-09-21T08:04:25;100650.25;;;11.85;100.00
4022;BME280;2025;48.260;16.432;2022-09-21T08:06:54;100649.97;;;12.18;100.00
4022;BME280;2025;48.260;16.432;2022-09-21T08:09:21;100652.81;;;12.32;100.00
4022;BME280;2025;48.260;16.432;2022-09-21T08:11:47;100650.97;;;12.27;100.00
4022;BME280;2025;48.260;16.432;2022-09-21T08:14:16;100652.19;;;12.48;100.00
4022;BME280;2025;48.260;16.432;2022-09-21T08:16:45;100653.09;;;12.52;100.00
4022;BME280;2025;48.260;16.432;2022-09-21T08:19:13;100651.06;;;12.33;100.00
4022;BME280;2025;48.260;16.432;2022-09-21T08:21:42;100659.84;;;12.33;100.00
4022;BME280;2025;48.260;16.432;2022-09-21T08:24:10;100656.94;;;12.16;100.00
4022;BME280;2025;48.260;16.432;2022-09-21T08:26:37;100656.72;;;12.06;100.00
4022;BME280;2025;48.260;16.432;2022-09-21T08:29:06;100654.78;;;11.96;100.00
4022;BME280;2025;48.260;16.432;2022-09-21T08:31:33;100650.22;;;11.84;100.00
4022;BME280;2025;48.260;16.432;2022-09-21T08:34:00;100654.06;;;12.04;100.00
4022;BME280;2025;48.260;16.432;2022-09-21T08:36:27;100652.69;;;12.25;100.00
4022;BME280;2025;48.260;16.432;2022-09-21T08:38:54;100650.59;;;12.60;100.00
4022;BME280;2025;48.260;16.432;2022-09-21T08:41:25;100643.88;;;12.80;100.00
4022;BME280;2025;48.260;16.432;2022-09-21T08:44:02;100640.81;;;13.14;100.00
4022;BME280;2025;48.260;16.432;2022-09-21T08:46:31;100648.69;;;13.13;100.00
4022;BME280;2025;48.260;16.432;2022-09-21T08:49:04;100639.25;;;13.29;100.00
4022;BME280;2025;48.260;16.432;2022-09-21T08:51:35;100644.19;;;13.80;100.00
4022;BME280;2025;48.260;16.432;2022-09-21T08:54:06;100642.53;;;13.88;100.00
4022;BME280;2025;48.260;16.432;2022-09-21T08:56:39;100651.06;;;13.66;100.00
4022;BME280;2025;48.260;16.432;2022-09-21T08:59:10;100639.66;;;13.65;100.00
4022;BME280;2025;48.260;16.432;2022-09-21T09:01:50;100644.00;;;13.62;100.00
4022;BME280;2025;48.260;16.432;2022-09-21T09:04:27;100639.66;;;13.67;100.00
4022;BME280;2025;48.260;16.432;2022-09-21T09:07:09;100643.19;;;13.69;100.00
4022;BME280;2025;48.260;16.432;2022-09-21T09:09:55;100634.19;;;13.47;100.00
4022;BME280;2025;48.260;16.432;2022-09-21T09:12:39;100647.31;;;13.42;100.00
4022;BME280;2025;48.260;16.432;2022-09-21T09:18:03;100651.63;;;13.36;100.00
4022;BME280;2025;48.260;16.432;2022-09-21T09:20:37;100640.31;;;13.46;100.00
4022;BME280;2025;48.260;16.432;2022-09-21T09:23:11;100645.03;;;13.76;100.00
4022;BME280;2025;48.260;16.432;2022-09-21T09:25:42;100643.81;;;13.43;100.00
4022;BME280;2025;48.260;16.432;2022-09-21T09:28:22;100643.91;;;13.53;100.00
4022;BME280;2025;48.260;16.432;2022-09-21T09:30:56;100650.91;;;13.51;100.00
4022;BME280;2025;48.260;16.432;2022-09-21T09:33:27;100648.13;;;13.37;100.00
4022;BME280;2025;48.260;16.432;2022-09-21T09:36:00;100642.31;;;13.67;100.00
4022;BME280;2025;48.260;16.432;2022-09-21T09:38:31;100650.13;;;13.61;100.00
4022;BME280;2025;48.260;16.432;2022-09-21T09:41:29;100643.06;;;13.57;100.00
4022;BME280;2025;48.260;16.432;2022-09-21T09:44:21;100650.75;;;14.25;100.00
4022;BME280;2025;48.260;16.432;2022-09-21T09:46:58;100638.75;;;14.63;100.00
4022;BME280;2025;48.260;16.432;2022-09-21T09:49:34;100634.44;;;14.76;100.00
4022;BME280;2025;48.260;16.432;2022-09-21T09:52:03;100642.00;;;14.30;100.00
4022;BME280;2025;48.260;16.432;2022-09-21T09:54:33;100638.41;;;14.18;100.00
4022;BME280;2025;48.260;16.432;2022-09-21T09:57:02;100643.16;;;14.63;100.00
4022;BME280;2025;48.260;16.432;2022-09-21T09:59:33;100644.63;;;14.29;100.00
4022;BME280;2025;48.260;16.432;2022-09-21T10:02:03;100648.19;;;14.35;100.00
4022;BME280;2025;48.260;16.432;2022-09-21T10:04:31;100641.00;;;14.13;100.00
4022;BME280;2025;48.260;16.432;2022-09-21T10:06:59;100639.13;;;14.01;100.00
4022;BME280;2025;48.260;16.432;2022-09-21T10:09:28;100633.91;;;14.06;100.00
4022;BME280;2025;48.260;16.432;2022-09-21T10:11:59;100629.56;;;14.12;100.00
4022;BME280;2025;48.260;16.432;2022-09-21T10:14:28;100626.97;;;14.17;100.00
4022;BME280;2025;48.260;16.432;2022-09-21T10:17:03;100625.34;;;14.34;100.00
4022;BME280;2025;48.260;16.432;2022-09-21T10:19:31;100619.31;;;14.48;100.00
4022;BME280;2025;48.260;16.432;2022-09-21T10:22:00;100616.13;;;15.17;100.00
4022;BME280;2025;48.260;16.432;2022-09-21T10:24:29;100609.31;;;16.09;100.00
4022;BME280;2025;48.260;16.432;2022-09-21T10:27:04;100605.78;;;15.92;100.00
4022;BME280;2025;48.260;16.432;2022-09-21T10:29:39;100607.34;;;17.04;100.00
4022;BME280;2025;48.260;16.432;2022-09-21T10:32:20;100609.66;;;17.74;100.00
4022;BME280;2025;48.260;16.432;2022-09-21T10:35:12;100610.41;;;17.91;100.00
4022;BME280;2025;48.260;16.432;2022-09-21T10:37:40;100607.53;;;18.19;100.00
4022;BME280;2025;48.260;16.432;2022-09-21T10:40:22;100611.06;;;18.21;100.00
4022;BME280;2025;48.260;16.432;2022-09-21T10:42:49;100598.50;;;18.40;100.00
4022;BME280;2025;48.260;16.432;2022-09-21T10:45:18;100597.31;;;18.71;100.00
4022;BME280;2025;48.260;16.432;2022-09-21T10:47:49;100601.38;;;18.17;96.01
4022;BME280;2025;48.260;16.432;2022-09-21T10:50:24;100598.59;;;18.29;100.00
4022;BME280;2025;48.260;16.432;2022-09-21T10:52:56;100595.22;;;18.12;100.00
4022;BME280;2025;48.260;16.432;2022-09-21T10:55:25;100603.22;;;18.07;96.09
4022;BME280;2025;48.260;16.432;2022-09-21T10:57:53;100598.03;;;18.85;100.00
4022;BME280;2025;48.260;16.432;2022-09-21T11:00:33;100598.59;;;18.29;88.02
4022;BME280;2025;48.260;16.432;2022-09-21T11:03:27;100605.44;;;18.51;86.34
4022;BME280;2025;48.260;16.432;2022-09-21T11:06:01;100597.47;;;19.30;84.15
4022;BME280;2025;48.260;16.432;2022-09-21T11:08:33;100586.69;;;19.42;82.23
4022;BME280;2025;48.260;16.432;2022-09-21T11:11:12;100594.34;;;18.96;76.60
4022;BME280;2025;48.260;16.432;2022-09-21T11:13:47;100599.91;;;20.05;81.57
4022;BME280;2025;48.260;16.432;2022-09-21T11:16:22;100585.69;;;20.06;74.82
4022;BME280;2025;48.260;16.432;2022-09-21T11:18:58;100587.56;;;20.01;77.66
4022;BME280;2025;48.260;16.432;2022-09-21T11:21:33;100583.84;;;20.11;73.51
4022;BME280;2025;48.260;16.432;2022-09-21T11:24:09;100580.00;;;20.75;69.47
4022;BME280;2025;48.260;16.432;2022-09-21T11:26:44;100567.91;;;22.18;69.61
4022;BME280;2025;48.260;16.432;2022-09-21T11:29:18;100586.88;;;21.70;64.13
4022;BME280;2025;48.260;16.432;2022-09-21T11:35:03;100573.81;;;20.27;67.03
4022;BME280;2025;48.260;16.432;2022-09-21T11:37:48;100568.69;;;20.64;64.55
4022;BME280;2025;48.260;16.432;2022-09-21T11:40:28;100567.88;;;20.60;62.85
4022;BME280;2025;48.260;16.432;2022-09-21T11:43:07;100575.19;;;20.95;62.63
4022;BME280;2025;48.260;16.432;2022-09-21T11:45:50;100566.06;;;20.62;61.11
4022;BME280;2025;48.260;16.432;2022-09-21T11:48:28;100573.56;;;21.30;63.95
4022;BME280;2025;48.260;16.432;2022-09-21T11:51:10;100571.03;;;21.62;66.07
4022;BME280;2025;48.260;16.432;2022-09-21T11:53:50;100566.78;;;22.60;54.21
4022;BME280;2025;48.260;16.432;2022-09-21T11:56:33;100568.72;;;21.84;51.16
4022;BME280;2025;48.260;16.432;2022-09-21T11:59:18;100558.81;;;23.21;52.66
4022;BME280;2025;48.260;16.432;2022-09-21T12:02:09;100559.53;;;23.55;52.18
4022;BME280;2025;48.260;16.432;2022-09-21T12:04:46;100544.22;;;22.38;47.85
4022;BME280;2025;48.260;16.432;2022-09-21T12:07:34;100551.28;;;23.04;50.49
4022;BME280;2025;48.260;16.432;2022-09-21T12:10:20;100540.06;;;22.28;55.03
4022;BME280;2025;48.260;16.432;2022-09-21T12:12:56;100551.84;;;20.63;61.76
4022;BME280;2025;48.260;16.432;2022-09-21T12:15:31;100544.50;;;20.74;64.87
4022;BME280;2025;48.260;16.432;2022-09-21T12:18:04;100553.88;;;21.37;75.32
4022;BME280;2025;48.260;16.432;2022-09-21T12:20:39;100542.16;;;20.11;73.00
4022;BME280;2025;48.260;16.432;2022-09-21T12:23:15;100542.66;;;20.32;73.69
4022;BME280;2025;48.260;16.432;2022-09-21T12:25:46;100549.94;;;20.22;76.21
4022;BME280;2025;48.260;16.432;2022-09-21T12:28:19;100539.53;;;19.58;75.62
4022;BME280;2025;48.260;16.432;2022-09-21T12:30:54;100533.06;;;19.74;80.69
4022;BME280;2025;48.260;16.432;2022-09-21T12:33:28;100531.63;;;19.53;80.86
4022;BME280;2025;48.260;16.432;2022-09-21T12:36:01;100535.97;;;19.57;86.97
4022;BME280;2025;48.260;16.432;2022-09-21T12:38:34;100529.28;;;19.87;80.51
4022;BME280;2025;48.260;16.432;2022-09-21T12:41:10;100527.06;;;20.12;93.77
4022;BME280;2025;48.260;16.432;2022-09-21T12:43:43;100522.34;;;19.78;73.12
4022;BME280;2025;48.260;16.432;2022-09-21T12:46:16;100532.16;;;19.75;79.09
4022;BME280;2025;48.260;16.432;2022-09-21T12:48:44;100529.53;;;20.23;82.52
4022;BME280;2025;48.260;16.432;2022-09-21T12:51:14;100542.22;;;20.08;69.08
4022;BME280;2025;48.260;16.432;2022-09-21T12:53:48;100527.44;;;19.91;78.53
4022;BME280;2025;48.260;16.432;2022-09-21T12:56:28;100537.81;;;19.50;72.34
4022;BME280;2025;48.260;16.432;2022-09-21T12:59:12;100527.94;;;20.12;75.01
4022;BME280;2025;48.260;16.432;2022-09-21T13:01:47;100522.94;;;19.39;76.90
4022;BME280;2025;48.260;16.432;2022-09-21T13:04:33;100519.19;;;19.53;73.40
4022;BME280;2025;48.260;16.432;2022-09-21T13:07:20;100524.34;;;19.64;79.73
4022;BME280;2025;48.260;16.432;2022-09-21T13:09:56;100518.03;;;19.71;77.35
4022;BME280;2025;48.260;16.432;2022-09-21T13:12:25;100519.13;;;20.09;76.16
4022;BME280;2025;48.260;16.432;2022-09-21T13:15:00;100511.06;;;19.63;79.15
4022;BME280;2025;48.260;16.432;2022-09-21T13:17:30;100516.78;;;19.37;78.08
4022;BME280;2025;48.260;16.432;2022-09-21T13:20:02;100516.72;;;19.40;80.57
4022;BME280;2025;48.260;16.432;2022-09-21T13:22:31;100509.47;;;19.51;80.33
4022;BME280;2025;48.260;16.432;2022-09-21T13:25:05;100514.47;;;19.14;81.03
4022;BME280;2025;48.260;16.432;2022-09-21T13:28:02;100506.72;;;18.22;86.05